sensor_id;sensor_type;location;lat;lon;timestamp;pressure;altitude;pressure_sealevel;temperature;humidity
41218;BME280;26950;50.960;7.138;2024-02-16T00:02:03;100140.50;;;17.30;63.24
41218;BME280;26950;50.960;7.138;2024-02-16T00:04:29;100140.56;;;17.20;63.66
41218;BME280;26950;50.960;7.138;2024-02-16T00:06:56;100141.41;;;17.25;63.40
41218;BME280;26950;50.960;7.138;2024-02-16T00:09:23;100143.25;;;17.14;63.56
41218;BME280;26950;50.960;7.138;2024-02-16T00:11:49;100136.16;;;17.19;63.77
41218;BME280;26950;50.960;7.138;2024-02-16T00:14:19;100134.63;;;16.80;64.59
41218;BME280;26950;50.960;7.138;2024-02-16T00:16:47;100125.78;;;16.86;64.69
41218;BME280;26950;50.960;7.138;2024-02-16T00:19:14;100131.94;;;16.91;65.12
41218;BME280;26950;50.960;7.138;2024-02-16T00:21:40;100132.66;;;17.17;64.09
41218;BME280;26950;50.960;7.138;2024-02-16T00:24:07;100138.88;;;17.10;64.04
41218;BME280;26950;50.960;7.138;2024-02-16T00:26:34;100133.47;;;17.25;63.29
41218;BME280;26950;50.960;7.138;2024-02-16T00:29:00;100122.97;;;17.12;63.39
41218;BME280;26950;50.960;7.138;2024-02-16T00:31:28;100123.63;;;17.41;62.65
41218;BME280;26950;50.960;7.138;2024-02-16T00:33:55;100125.50;;;17.29;62.14
41218;BME280;26950;50.960;7.138;2024-02-16T00:36:22;100122.97;;;17.07;63.08
41218;BME280;26950;50.960;7.138;2024-02-16T00:38:49;100123.84;;;17.08;63.59
41218;BME280;26950;50.960;7.138;2024-02-16T00:41:19;100121.09;;;17.24;62.91
41218;BME280;26950;50.960;7.138;2024-02-16T00:43:46;100135.28;;;17.19;63.15
41218;BME280;26950;50.960;7.138;2024-02-16T00:46:12;100127.25;;;17.30;62.53
41218;BME280;26950;50.960;7.138;2024-02-16T00:48:40;100124.84;;;16.91;63.33
41218;BME280;26950;50.960;7.138;2024-02-16T00:51:06;100130.88;;;17.16;63.43
41218;BME280;26950;50.960;7.138;2024-02-16T00:53:33;100121.97;;;17.26;62.49
41218;BME280;26950;50.960;7.138;2024-02-16T00:55:59;100121.00;;;17.34;62.26
41218;BME280;26950;50.960;7.138;2024-02-16T00:58:26;100119.25;;;17.36;61.46
41218;BME280;26950;50.960;7.138;2024-02-16T01:00:52;100131.75;;;17.17;62.26
41218;BME280;26950;50.960;7.138;2024-02-16T01:03:19;100124.81;;;16.96;62.36
41218;BME280;26950;50.960;7.138;2024-02-16T01:05:49;100121.91;;;17.36;62.01
41218;BME280;26950;50.960;7.138;2024-02-16T01:08:15;100129.06;;;17.24;61.75
41218;BME280;26950;50.960;7.138;2024-02-16T01:10:42;100125.78;;;16.83;63.67
41218;BME280;26950;50.960;7.138;2024-02-16T01:13:08;100130.97;;;17.01;62.77
41218;BME280;26950;50.960;7.138;2024-02-16T01:15:35;100122.09;;;17.08;62.13
41218;BME280;26950;50.960;7.138;2024-02-16T01:18:02;100126.44;;;17.18;62.12
41218;BME280;26950;50.960;7.138;2024-02-16T01:20:29;100122.84;;;17.27;61.68
41218;BME280;26950;50.960;7.138;2024-02-16T01:22:58;100118.31;;;17.43;61.39
41218;BME280;26950;50.960;7.138;2024-02-16T01:25:24;100123.72;;;17.27;61.20
41218;BME280;26950;50.960;7.138;2024-02-16T01:27:51;100119.25;;;17.36;61.18
41218;BME280;26950;50.960;7.138;2024-02-16T01:30:17;100112.22;;;17.30;61.17
41218;BME280;26950;50.960;7.138;2024-02-16T01:32:45;100116.78;;;17.08;61.94
41218;BME280;26950;50.960;7.138;2024-02-16T01:35:12;100110.47;;;17.29;61.54
41218;BME280;26950;50.960;7.138;2024-02-16T01:37:39;100113.97;;;17.33;60.54
41218;BME280;26950;50.960;7.138;2024-02-16T01:40:09;100112.25;;;17.24;61.33
41218;BME280;26950;50.960;7.138;2024-02-16T01:42:39;100113.97;;;17.28;60.93
41218;BME280;26950;50.960;7.138;2024-02-16T01:45:06;100109.88;;;16.86;62.34
41218;BME280;26950;50.960;7.138;2024-02-16T01:47:34;100103.38;;;17.30;61.26
41218;BME280;26950;50.960;7.138;2024-02-16T01:50:01;100107.75;;;17.34;60.55
41218;BME280;26950;50.960;7.138;2024-02-16T01:52:28;100103.38;;;17.28;61.58
41218;BME280;26950;50.960;7.138;2024-02-16T01:54:56;100101.56;;;17.35;60.72
41218;BME280;26950;50.960;7.138;2024-02-16T01:57:24;100112.16;;;17.38;60.55
41218;BME280;26950;50.960;7.138;2024-02-16T01:59:50;100107.72;;;17.41;60.54
41218;BME280;26950;50.960;7.138;2024-02-16T02:02:18;100109.69;;;17.13;60.99
41218;BME280;26950;50.960;7.138;2024-02-16T02:04:45;100106.78;;;17.48;60.60
41218;BME280;26950;50.960;7.138;2024-02-16T02:07:13;100098.94;;;17.32;60.86
41218;BME280;26950;50.960;7.138;2024-02-16T02:09:40;100100.78;;;17.20;61.98
41218;BME280;26950;50.960;7.138;2024-02-16T02:12:07;100106.03;;;17.26;62.61
41218;BME280;26950;50.960;7.138;2024-02-16T02:14:35;100098.78;;;17.51;61.84
41218;BME280;26950;50.960;7.138;2024-02-16T02:17:02;100097.78;;;17.63;62.54
41218;BME280;26950;50.960;7.138;2024-02-16T02:19:29;100102.41;;;17.40;63.62
41218;BME280;26950;50.960;7.138;2024-02-16T02:21:56;100103.31;;;17.37;63.81
41218;BME280;26950;50.960;7.138;2024-02-16T02:24:24;100106.00;;;17.36;64.75
41218;BME280;26950;50.960;7.138;2024-02-16T02:26:50;100109.47;;;17.44;64.50
41218;BME280;26950;50.960;7.138;2024-02-16T02:29:17;100103.22;;;17.46;65.26
41218;BME280;26950;50.960;7.138;2024-02-16T02:31:43;100098.97;;;17.29;65.94
41218;BME280;26950;50.960;7.138;2024-02-16T02:34:10;100098.75;;;17.53;64.90
41218;BME280;26950;50.960;7.138;2024-02-16T02:36:36;100104.97;;;17.50;65.33
41218;BME280;26950;50.960;7.138;2024-02-16T02:39:03;100090.84;;;17.48;64.65
41218;BME280;26950;50.960;7.138;2024-02-16T02:41:31;100090.69;;;17.64;65.36
41218;BME280;26950;50.960;7.138;2024-02-16T02:43:58;100088.97;;;17.61;65.19
41218;BME280;26950;50.960;7.138;2024-02-16T02:46:24;100091.75;;;17.46;65.92
41218;BME280;26950;50.960;7.138;2024-02-16T02:48:53;100082.13;;;17.36;67.35
41218;BME280;26950;50.960;7.138;2024-02-16T02:51:19;100083.88;;;17.37;67.02
41218;BME280;26950;50.960;7.138;2024-02-16T02:53:46;100095.41;;;17.31;67.44
41218;BME280;26950;50.960;7.138;2024-02-16T02:56:12;100095.44;;;17.26;67.09
41218;BME280;26950;50.960;7.138;2024-02-16T02:58:40;100096.28;;;17.33;67.00
41218;BME280;26950;50.960;7.138;2024-02-16T03:01:06;100095.44;;;17.26;66.81
41218;BME280;26950;50.960;7.138;2024-02-16T03:03:34;100087.84;;;16.71;68.69
41218;BME280;26950;50.960;7.138;2024-02-16T03:06:00;100085.84;;;17.10;67.78
41218;BME280;26950;50.960;7.138;2024-02-16T03:08:27;100081.28;;;17.31;66.93
41218;BME280;26950;50.960;7.138;2024-02-16T03:10:53;100083.94;;;17.31;66.76
41218;BME280;26950;50.960;7.138;2024-02-16T03:13:20;100081.28;;;17.31;66.37
41218;BME280;26950;50.960;7.138;2024-02-16T03:15:48;100092.69;;;17.39;67.45
41218;BME280;26950;50.960;7.138;2024-02-16T03:18:14;100104.47;;;17.04;67.87
41218;BME280;26950;50.960;7.138;2024-02-16T03:20:41;100096.31;;;17.29;67.13
41218;BME280;26950;50.960;7.138;2024-02-16T03:23:11;100081.34;;;17.21;68.33
41218;BME280;26950;50.960;7.138;2024-02-16T03:25:37;100076.00;;;17.26;68.29
41218;BME280;26950;50.960;7.138;2024-02-16T03:28:04;100082.41;;;16.97;69.75
41218;BME280;26950;50.960;7.138;2024-02-16T03:30:31;100074.44;;;16.96;69.23
41218;BME280;26950;50.960;7.138;2024-02-16T03:32:59;100073.78;;;16.60;70.57
41218;BME280;26950;50.960;7.138;2024-02-16T03:35:25;100068.22;;;17.06;69.42
41218;BME280;26950;50.960;7.138;2024-02-16T03:37:52;100076.16;;;17.06;70.11
41218;BME280;26950;50.960;7.138;2024-02-16T03:40:19;100085.97;;;16.92;70.20
41218;BME280;26950;50.960;7.138;2024-02-16T03:42:45;100076.38;;;16.63;70.35
41218;BME280;26950;50.960;7.138;2024-02-16T03:45:12;100085.31;;;16.47;72.10
41218;BME280;26950;50.960;7.138;2024-02-16T03:47:40;100081.59;;;16.88;70.48
41218;BME280;26950;50.960;7.138;2024-02-16T03:50:08;100082.56;;;16.73;70.41
41218;BME280;26950;50.960;7.138;2024-02-16T03:52:35;100069.22;;;16.91;69.37
41218;BME280;26950;50.960;7.138;2024-02-16T03:55:02;100064.59;;;17.15;68.25
41218;BME280;26950;50.960;7.138;2024-02-16T03:57:29;100073.50;;;17.06;68.84
41218;BME280;26950;50.960;7.138;2024-02-16T03:59:56;100080.44;;;17.25;68.75
41218;BME280;26950;50.960;7.138;2024-02-16T04:02:23;100081.53;;;16.94;68.97
41218;BME280;26950;50.960;7.138;2024-02-16T04:04:49;100085.09;;;16.91;69.40
41218;BME280;26950;50.960;7.138;2024-02-16T04:07:17;100088.59;;;16.98;69.35
41218;BME280;26950;50.960;7.138;2024-02-16T04:09:44;100094.91;;;16.65;70.70
41218;BME280;26950;50.960;7.138;2024-02-16T04:12:11;100083.41;;;16.80;70.56
41218;BME280;26950;50.960;7.138;2024-02-16T04:14:37;100079.03;;;16.74;70.82
41218;BME280;26950;50.960;7.138;2024-02-16T04:17:04;100083.44;;;16.70;71.14
41218;BME280;26950;50.960;7.138;2024-02-16T04:19:30;100080.75;;;16.78;71.08
41218;BME280;26950;50.960;7.138;2024-02-16T04:21:58;100076.16;;;17.03;69.28
41218;BME280;26950;50.960;7.138;2024-02-16T04:24:26;100075.31;;;17.04;69.43
41218;BME280;26950;50.960;7.138;2024-02-16T04:26:52;100071.03;;;16.85;70.28
41218;BME280;26950;50.960;7.138;2024-02-16T04:29:19;100071.91;;;16.81;71.70
41218;BME280;26950;50.960;7.138;2024-02-16T04:31:45;100067.31;;;17.07;69.94
41218;BME280;26950;50.960;7.138;2024-02-16T04:34:13;100066.50;;;16.94;70.62
41218;BME280;26950;50.960;7.138;2024-02-16T04:36:39;100077.16;;;16.91;70.90
41218;BME280;26950;50.960;7.138;2024-02-16T04:39:06;100079.00;;;16.77;72.15
41218;BME280;26950;50.960;7.138;2024-02-16T04:41:34;100082.41;;;16.94;71.97
41218;BME280;26950;50.960;7.138;2024-02-16T04:44:01;100087.88;;;16.67;73.88
41218;BME280;26950;50.960;7.138;2024-02-16T04:46:27;100096.69;;;16.75;73.22
41218;BME280;26950;50.960;7.138;2024-02-16T04:48:54;100095.81;;;16.73;73.81
41218;BME280;26950;50.960;7.138;2024-02-16T04:51:20;100112.78;;;16.23;77.24
41218;BME280;26950;50.960;7.138;2024-02-16T04:53:47;100097.56;;;16.69;74.85
41218;BME280;26950;50.960;7.138;2024-02-16T04:56:14;100093.94;;;16.84;74.41
41218;BME280;26950;50.960;7.138;2024-02-16T04:58:42;100086.00;;;16.84;74.78
41218;BME280;26950;50.960;7.138;2024-02-16T05:01:09;100107.13;;;16.96;74.16
41218;BME280;26950;50.960;7.138;2024-02-16T05:03:36;100109.94;;;16.70;75.29
41218;BME280;26950;50.960;7.138;2024-02-16T05:06:05;100101.06;;;16.78;76.10
41218;BME280;26950;50.960;7.138;2024-02-16T05:08:32;100099.28;;;16.83;75.52
41218;BME280;26950;50.960;7.138;2024-02-16T05:11:00;100103.75;;;16.67;76.63
41218;BME280;26950;50.960;7.138;2024-02-16T05:13:26;100094.94;;;16.62;77.17
41218;BME280;26950;50.960;7.138;2024-02-16T05:15:54;100100.19;;;16.79;76.42
41218;BME280;26950;50.960;7.138;2024-02-16T05:18:21;100113.47;;;16.66;77.68
41218;BME280;26950;50.960;7.138;2024-02-16T05:20:48;100111.75;;;16.56;77.77
41218;BME280;26950;50.960;7.138;2024-02-16T05:23:14;100095.78;;;16.68;76.81
41218;BME280;26950;50.960;7.138;2024-02-16T05:25:41;100107.22;;;16.87;76.83
41218;BME280;26950;50.960;7.138;2024-02-16T05:28:07;100113.38;;;16.91;76.29
41218;BME280;26950;50.960;7.138;2024-02-16T05:30:34;100107.06;;;17.10;74.99
41218;BME280;26950;50.960;7.138;2024-02-16T05:33:02;100099.03;;;17.22;74.24
41218;BME280;26950;50.960;7.138;2024-02-16T05:35:29;100098.28;;;17.01;75.89
41218;BME280;26950;50.960;7.138;2024-02-16T05:37:59;100106.19;;;17.11;75.26
41218;BME280;26950;50.960;7.138;2024-02-16T05:40:32;100112.31;;;17.16;75.11
41218;BME280;26950;50.960;7.138;2024-02-16T05:43:10;100106.22;;;17.05;75.68
41218;BME280;26950;50.960;7.138;2024-02-16T05:45:37;100103.72;;;16.76;77.87
41218;BME280;26950;50.960;7.138;2024-02-16T05:48:08;100105.53;;;16.73;78.50
41218;BME280;26950;50.960;7.138;2024-02-16T05:50:35;100098.44;;;16.79;77.45
41218;BME280;26950;50.960;7.138;2024-02-16T05:53:02;100099.19;;;16.98;76.57
41218;BME280;26950;50.960;7.138;2024-02-16T05:55:28;100096.63;;;16.81;77.38
41218;BME280;26950;50.960;7.138;2024-02-16T05:57:55;100094.69;;;17.11;75.84
41218;BME280;26950;50.960;7.138;2024-02-16T06:00:22;100090.25;;;17.11;75.44
41218;BME280;26950;50.960;7.138;2024-02-16T06:02:48;100093.81;;;17.10;75.22
41218;BME280;26950;50.960;7.138;2024-02-16T06:05:16;100098.22;;;17.08;76.10
41218;BME280;26950;50.960;7.138;2024-02-16T06:07:45;100098.44;;;16.71;76.90
41218;BME280;26950;50.960;7.138;2024-02-16T06:10:11;100099.28;;;16.86;75.70
41218;BME280;26950;50.960;7.138;2024-02-16T06:12:38;100098.47;;;16.73;76.76
41218;BME280;26950;50.960;7.138;2024-02-16T06:15:05;100097.66;;;16.50;78.38
41218;BME280;26950;50.960;7.138;2024-02-16T06:17:32;100101.84;;;16.95;76.24
41218;BME280;26950;50.960;7.138;2024-02-16T06:19:59;100090.38;;;16.97;75.44
41218;BME280;26950;50.960;7.138;2024-02-16T06:22:27;100100.13;;;16.91;74.53
41218;BME280;26950;50.960;7.138;2024-02-16T06:24:53;100107.25;;;16.80;75.01
41218;BME280;26950;50.960;7.138;2024-02-16T06:27:20;100115.13;;;16.92;75.11
41218;BME280;26950;50.960;7.138;2024-02-16T06:29:46;100111.44;;;17.17;73.17
41218;BME280;26950;50.960;7.138;2024-02-16T06:32:13;100109.63;;;17.22;72.07
41218;BME280;26950;50.960;7.138;2024-02-16T06:34:39;100112.22;;;17.27;71.26
41218;BME280;26950;50.960;7.138;2024-02-16T06:37:06;100114.91;;;17.29;71.32
41218;BME280;26950;50.960;7.138;2024-02-16T06:39:34;100107.78;;;17.31;71.10
41218;BME280;26950;50.960;7.138;2024-02-16T06:42:00;100106.94;;;17.25;71.47
41218;BME280;26950;50.960;7.138;2024-02-16T06:44:27;100087.78;;;16.87;72.56
41218;BME280;26950;50.960;7.138;2024-02-16T06:46:53;100106.28;;;16.94;72.51
41218;BME280;26950;50.960;7.138;2024-02-16T06:49:20;100102.63;;;17.12;71.91
41218;BME280;26950;50.960;7.138;2024-02-16T06:51:47;100090.22;;;17.14;71.01
41218;BME280;26950;50.960;7.138;2024-02-16T06:54:14;100101.16;;;16.55;72.80
41218;BME280;26950;50.960;7.138;2024-02-16T06:56:42;100106.28;;;16.90;72.21
41218;BME280;26950;50.960;7.138;2024-02-16T06:59:09;100100.09;;;16.94;72.39
41218;BME280;26950;50.960;7.138;2024-02-16T07:01:35;100103.63;;;16.97;72.02
41218;BME280;26950;50.960;7.138;2024-02-16T07:04:02;100107.25;;;16.81;73.09
41218;BME280;26950;50.960;7.138;2024-02-16T07:06:29;100119.56;;;16.84;72.01
41218;BME280;26950;50.960;7.138;2024-02-16T07:08:55;100125.50;;;17.25;70.21
41218;BME280;26950;50.960;7.138;2024-02-16T07:11:22;100127.41;;;17.02;70.35
41218;BME280;26950;50.960;7.138;2024-02-16T07:13:50;100132.81;;;16.84;71.71
41218;BME280;26950;50.960;7.138;2024-02-16T07:16:16;100136.41;;;16.69;71.90
41218;BME280;26950;50.960;7.138;2024-02-16T07:18:43;100142.28;;;17.31;69.92
41218;BME280;26950;50.960;7.138;2024-02-16T07:21:10;100141.47;;;17.18;68.98
41218;BME280;26950;50.960;7.138;2024-02-16T07:23:37;100137.81;;;17.36;69.11
41218;BME280;26950;50.960;7.138;2024-02-16T07:26:04;100144.00;;;17.33;69.32
41218;BME280;26950;50.960;7.138;2024-02-16T07:28:30;100161.56;;;17.54;68.51
41218;BME280;26950;50.960;7.138;2024-02-16T07:30:58;100182.63;;;17.72;67.97
41218;BME280;26950;50.960;7.138;2024-02-16T07:33:25;100199.47;;;17.65;68.17
41218;BME280;26950;50.960;7.138;2024-02-16T07:35:53;100187.50;;;17.05;72.44
41218;BME280;26950;50.960;7.138;2024-02-16T07:38:20;100180.41;;;17.08;72.09
41218;BME280;26950;50.960;7.138;2024-02-16T07:40:47;100184.97;;;16.85;73.78
41218;BME280;26950;50.960;7.138;2024-02-16T07:43:16;100189.19;;;17.19;71.57
41218;BME280;26950;50.960;7.138;2024-02-16T07:45:42;100193.72;;;16.96;72.48
41218;BME280;26950;50.960;7.138;2024-02-16T07:48:10;100195.44;;;17.03;71.74
41218;BME280;26950;50.960;7.138;2024-02-16T07:50:37;100198.78;;;17.39;70.52
41218;BME280;26950;50.960;7.138;2024-02-16T07:53:03;100203.06;;;17.61;70.00
41218;BME280;26950;50.960;7.138;2024-02-16T07:55:30;100207.53;;;17.51;69.60
41218;BME280;26950;50.960;7.138;2024-02-16T07:57:57;100210.25;;;17.41;70.30
41218;BME280;26950;50.960;7.138;2024-02-16T08:00:23;100211.13;;;17.44;69.63
41218;BME280;26950;50.960;7.138;2024-02-16T08:02:50;100211.38;;;17.02;69.66
41218;BME280;26950;50.960;7.138;2024-02-16T08:05:18;100215.91;;;16.70;74.65
41218;BME280;26950;50.960;7.138;2024-02-16T08:07:46;100220.22;;;16.96;73.46
41218;BME280;26950;50.960;7.138;2024-02-16T08:10:13;100219.09;;;17.40;70.44
41218;BME280;26950;50.960;7.138;2024-02-16T08:12:40;100221.91;;;17.15;70.60
41218;BME280;26950;50.960;7.138;2024-02-16T08:15:07;100229.16;;;16.61;74.01
41218;BME280;26950;50.960;7.138;2024-02-16T08:17:36;100222.97;;;16.79;72.41
41218;BME280;26950;50.960;7.138;2024-02-16T08:20:03;100237.91;;;17.00;72.00
41218;BME280;26950;50.960;7.138;2024-02-16T08:22:31;100247.72;;;16.46;73.38
41218;BME280;26950;50.960;7.138;2024-02-16T08:24:59;100244.19;;;16.56;74.51
41218;BME280;26950;50.960;7.138;2024-02-16T08:27:26;100244.16;;;16.65;74.02
41218;BME280;26950;50.960;7.138;2024-02-16T08:29:52;100247.38;;;17.44;71.03
41218;BME280;26950;50.960;7.138;2024-02-16T08:32:19;100245.47;;;17.64;68.93
41218;BME280;26950;50.960;7.138;2024-02-16T08:34:46;100249.34;;;17.08;70.48
41218;BME280;26950;50.960;7.138;2024-02-16T08:37:13;100245.63;;;17.40;70.52
41218;BME280;26950;50.960;7.138;2024-02-16T08:39:41;100243.84;;;17.48;69.69
41218;BME280;26950;50.960;7.138;2024-02-16T08:42:08;100248.47;;;17.06;72.33
41218;BME280;26950;50.960;7.138;2024-02-16T08:44:36;100245.81;;;17.11;71.56
41218;BME280;26950;50.960;7.138;2024-02-16T08:47:04;100251.72;;;17.57;69.74
41218;BME280;26950;50.960;7.138;2024-02-16T08:49:31;100249.09;;;17.54;68.94
41218;BME280;26950;50.960;7.138;2024-02-16T08:51:58;100249.19;;;17.37;70.65
41218;BME280;26950;50.960;7.138;2024-02-16T08:54:25;100239.31;;;17.62;69.28
41218;BME280;26950;50.960;7.138;2024-02-16T08:56:53;100250.88;;;17.50;71.81
41218;BME280;26950;50.960;7.138;2024-02-16T08:59:19;100257.09;;;17.48;70.94
41218;BME280;26950;50.960;7.138;2024-02-16T09:01:46;100266.75;;;17.58;71.18
41218;BME280;26950;50.960;7.138;2024-02-16T09:04:13;100258.72;;;17.75;70.52
41218;BME280;26950;50.960;7.138;2024-02-16T09:06:40;100261.50;;;17.46;70.38
41218;BME280;26950;50.960;7.138;2024-02-16T09:09:07;100263.06;;;17.87;70.52
41218;BME280;26950;50.960;7.138;2024-02-16T09:11:34;100264.25;;;17.35;70.65
41218;BME280;26950;50.960;7.138;2024-02-16T09:14:01;100267.53;;;17.80;70.10
41218;BME280;26950;50.960;7.138;2024-02-16T09:16:28;100266.50;;;17.98;69.53
41218;BME280;26950;50.960;7.138;2024-02-16T09:18:55;100265.25;;;17.10;71.90
41218;BME280;26950;50.960;7.138;2024-02-16T09:21:24;100271.22;;;17.55;71.94
41218;BME280;26950;50.960;7.138;2024-02-16T09:23:52;100274.56;;;17.84;69.36
41218;BME280;26950;50.960;7.138;2024-02-16T09:26:19;100279.72;;;18.02;68.23
41218;BME280;26950;50.960;7.138;2024-02-16T09:28:45;100279.03;;;17.77;70.72
41218;BME280;26950;50.960;7.138;2024-02-16T09:31:15;100281.78;;;17.58;70.78
41218;BME280;26950;50.960;7.138;2024-02-16T09:33:41;100279.94;;;17.76;69.59
41218;BME280;26950;50.960;7.138;2024-02-16T09:36:08;100281.75;;;17.62;71.40
41218;BME280;26950;50.960;7.138;2024-02-16T09:38:35;100295.94;;;17.61;70.38
41218;BME280;26950;50.960;7.138;2024-02-16T09:41:01;100305.63;;;17.64;70.72
41218;BME280;26950;50.960;7.138;2024-02-16T09:43:29;100305.38;;;18.03;68.62
41218;BME280;26950;50.960;7.138;2024-02-16T09:45:57;100300.00;;;18.14;69.49
41218;BME280;26950;50.960;7.138;2024-02-16T09:48:27;100299.41;;;17.75;70.81
41218;BME280;26950;50.960;7.138;2024-02-16T09:50:54;100308.22;;;17.77;71.83
41218;BME280;26950;50.960;7.138;2024-02-16T09:53:24;100320.84;;;17.30;74.66
41218;BME280;26950;50.960;7.138;2024-02-16T09:55:50;100315.06;;;18.09;72.26
41218;BME280;26950;50.960;7.138;2024-02-16T09:58:18;100309.03;;;17.92;73.57
41218;BME280;26950;50.960;7.138;2024-02-16T10:00:49;100323.28;;;17.72;72.17
41218;BME280;26950;50.960;7.138;2024-02-16T10:03:22;100329.41;;;17.84;71.89
41218;BME280;26950;50.960;7.138;2024-02-16T10:05:51;100328.63;;;17.66;72.58
41218;BME280;26950;50.960;7.138;2024-02-16T10:08:18;100333.06;;;17.60;72.40
41218;BME280;26950;50.960;7.138;2024-02-16T10:10:44;100335.94;;;17.06;74.21
41218;BME280;26950;50.960;7.138;2024-02-16T10:13:11;100337.72;;;17.01;75.59
41218;BME280;26950;50.960;7.138;2024-02-16T10:15:38;100343.78;;;17.40;74.15
41218;BME280;26950;50.960;7.138;2024-02-16T10:18:05;100332.19;;;17.59;73.29
41218;BME280;26950;50.960;7.138;2024-02-16T10:20:33;100341.88;;;17.72;73.04
41218;BME280;26950;50.960;7.138;2024-02-16T10:23:08;100341.88;;;17.65;73.19
41218;BME280;26950;50.960;7.138;2024-02-16T10:25:36;100353.19;;;18.02;71.46
41218;BME280;26950;50.960;7.138;2024-02-16T10:28:04;100347.91;;;18.00;72.46
41218;BME280;26950;50.960;7.138;2024-02-16T10:30:35;100352.38;;;17.94;72.19
41218;BME280;26950;50.960;7.138;2024-02-16T10:33:03;100364.84;;;17.70;75.48
41218;BME280;26950;50.960;7.138;2024-02-16T10:35:30;100366.78;;;17.42;75.87
41218;BME280;26950;50.960;7.138;2024-02-16T10:38:00;100369.38;;;17.47;79.59
41218;BME280;26950;50.960;7.138;2024-02-16T10:40:32;100368.53;;;17.42;78.73
41218;BME280;26950;50.960;7.138;2024-02-16T10:43:02;100370.16;;;17.78;78.89
41218;BME280;26950;50.960;7.138;2024-02-16T10:45:33;100382.56;;;17.76;78.96
41218;BME280;26950;50.960;7.138;2024-02-16T10:48:00;100374.56;;;17.77;79.79
41218;BME280;26950;50.960;7.138;2024-02-16T10:50:26;100380.63;;;18.01;78.66
41218;BME280;26950;50.960;7.138;2024-02-16T10:52:54;100384.50;;;17.26;83.35
41218;BME280;26950;50.960;7.138;2024-02-16T10:55:22;100390.56;;;17.58;83.08
41218;BME280;26950;50.960;7.138;2024-02-16T10:57:51;100393.38;;;17.15;86.47
41218;BME280;26950;50.960;7.138;2024-02-16T11:00:20;100392.50;;;17.10;89.10
41218;BME280;26950;50.960;7.138;2024-02-16T11:02:52;100393.41;;;16.93;89.17
41218;BME280;26950;50.960;7.138;2024-02-16T11:05:31;100388.03;;;17.29;87.63
41218;BME280;26950;50.960;7.138;2024-02-16T11:08:00;100391.50;;;17.44;86.91
41218;BME280;26950;50.960;7.138;2024-02-16T11:10:27;100387.94;;;17.50;86.54
41218;BME280;26950;50.960;7.138;2024-02-16T11:12:55;100386.25;;;17.37;86.38
41218;BME280;26950;50.960;7.138;2024-02-16T11:15:30;100380.16;;;16.95;88.05
41218;BME280;26950;50.960;7.138;2024-02-16T11:17:57;100384.44;;;17.40;87.45
41218;BME280;26950;50.960;7.138;2024-02-16T11:20:25;100383.69;;;17.06;88.25
41218;BME280;26950;50.960;7.138;2024-02-16T11:22:52;100388.78;;;17.61;84.81
41218;BME280;26950;50.960;7.138;2024-02-16T11:25:19;100382.56;;;17.70;84.69
41218;BME280;26950;50.960;7.138;2024-02-16T11:27:58;100381.72;;;17.60;83.54
41218;BME280;26950;50.960;7.138;2024-02-16T11:30:24;100376.38;;;17.69;83.46
41218;BME280;26950;50.960;7.138;2024-02-16T11:32:51;100396.69;;;17.76;84.25
41218;BME280;26950;50.960;7.138;2024-02-16T11:35:18;100389.69;;;17.60;83.19
41218;BME280;26950;50.960;7.138;2024-02-16T11:37:45;100384.41;;;17.54;84.38
41218;BME280;26950;50.960;7.138;2024-02-16T11:40:12;100394.19;;;17.43;83.58
41218;BME280;26950;50.960;7.138;2024-02-16T11:42:39;100385.09;;;17.99;81.05
41218;BME280;26950;50.960;7.138;2024-02-16T11:45:10;100394.97;;;17.62;82.71
41218;BME280;26950;50.960;7.138;2024-02-16T11:47:37;100397.66;;;17.60;83.42
41218;BME280;26950;50.960;7.138;2024-02-16T11:50:05;100390.53;;;17.64;82.98
41218;BME280;26950;50.960;7.138;2024-02-16T11:52:32;100394.81;;;17.95;80.86
41218;BME280;26950;50.960;7.138;2024-02-16T11:54:59;100407.28;;;17.87;82.26
41218;BME280;26950;50.960;7.138;2024-02-16T11:57:34;100400.91;;;18.16;81.22
41218;BME280;26950;50.960;7.138;2024-02-16T12:00:01;100402.84;;;17.88;81.64
41218;BME280;26950;50.960;7.138;2024-02-16T12:02:34;100401.56;;;18.47;79.81
41218;BME280;26950;50.960;7.138;2024-02-16T12:05:01;100400.59;;;18.54;78.16
41218;BME280;26950;50.960;7.138;2024-02-16T12:07:28;100409.44;;;18.57;77.34
41218;BME280;26950;50.960;7.138;2024-02-16T12:09:56;100413.00;;;18.53;77.42
41218;BME280;26950;50.960;7.138;2024-02-16T12:12:23;100403.31;;;18.48;77.96
41218;BME280;26950;50.960;7.138;2024-02-16T12:14:50;100409.66;;;18.31;79.10
41218;BME280;26950;50.960;7.138;2024-02-16T12:17:16;100411.09;;;18.77;79.00
41218;BME280;26950;50.960;7.138;2024-02-16T12:19:45;100400.44;;;18.77;80.04
41218;BME280;26950;50.960;7.138;2024-02-16T12:22:16;100404.97;;;18.63;80.74
41218;BME280;26950;50.960;7.138;2024-02-16T12:24:43;100427.38;;;18.26;84.86
41218;BME280;26950;50.960;7.138;2024-02-16T12:27:10;100420.97;;;18.53;82.34
41218;BME280;26950;50.960;7.138;2024-02-16T12:29:36;100416.59;;;18.48;85.06
41218;BME280;26950;50.960;7.138;2024-02-16T12:32:04;100424.59;;;18.49;84.89
41218;BME280;26950;50.960;7.138;2024-02-16T12:34:30;100416.75;;;18.26;86.25
41218;BME280;26950;50.960;7.138;2024-02-16T12:36:59;100418.47;;;18.38;86.07
41218;BME280;26950;50.960;7.138;2024-02-16T12:39:26;100417.59;;;18.33;86.53
41218;BME280;26950;50.960;7.138;2024-02-16T12:41:52;100431.75;;;18.33;87.28
41218;BME280;26950;50.960;7.138;2024-02-16T12:44:19;100439.72;;;18.37;87.49
41218;BME280;26950;50.960;7.138;2024-02-16T12:46:46;100439.78;;;18.30;88.11
41218;BME280;26950;50.960;7.138;2024-02-16T12:49:13;100438.72;;;18.51;86.13
41218;BME280;26950;50.960;7.138;2024-02-16T12:51:39;100435.28;;;18.37;86.96